Time;durP1;ratioP1;P1;durP2;ratioP2;P2;SDS_P1;SDS_P2;PMS_P1;PMS_P2;Temp;Humidity;BMP_temperature;BMP_pressure;BME280_temperature;BME280_humidity;BME280_pressure;Samples;Min_cycle;Max_cycle;Signal;HPM_P1;HPM_P2
2023/06/12 00:01:02;;;;;;;6.22;3.83;;;20.80;58.60;;;;;;6122376;23;20471;-64
2023/06/12 00:03:49;;;;;;;5.30;3.78;;;20.70;58.50;;;;;;6122140;23;20026;-65
2023/06/12 00:06:35;;;;;;;4.80;3.20;;;20.70;58.40;;;;;;6117498;23;20014;-66
2023/06/12 00:09:22;;;;;;;4.28;3.20;;;20.60;58.70;;;;;;6092459;23;20033;-64
2023/06/12 00:12:08;;;;;;;5.32;3.53;;;20.60;58.60;;;;;;6094048;23;20460;-65
2023/06/12 00:14:54;;;;;;;3.97;3.25;;;20.60;58.50;;;;;;6089850;23;20010;-65
2023/06/12 00:17:40;;;;;;;5.65;4.10;;;20.50;58.40;;;;;;6093703;23;20296;-65
2023/06/12 00:20:27;;;;;;;5.07;3.78;;;20.50;58.40;;;;;;6090349;23;20444;-65
2023/06/12 00:23:13;;;;;;;6.03;3.75;;;20.40;58.20;;;;;;6092207;23;20010;-66
2023/06/12 00:25:59;;;;;;;5.55;3.42;;;20.40;58.20;;;;;;6092886;23;20097;-63
2023/06/12 00:28:45;;;;;;;5.63;3.70;;;20.40;58.10;;;;;;6092313;23;20020;-64
2023/06/12 00:31:31;;;;;;;5.75;3.63;;;20.30;58.30;;;;;;6091261;23;20014;-63
2023/06/12 00:34:17;;;;;;;6.88;3.30;;;20.30;58.20;;;;;;6092007;23;20042;-65
2023/06/12 00:37:05;;;;;;;5.03;3.17;;;20.20;58.10;;;;;;6093560;23;20061;-63
2023/06/12 00:39:52;;;;;;;4.93;3.15;;;20.20;58.10;;;;;;6092665;23;20476;-63
2023/06/12 00:42:46;;;;;;;5.70;3.85;;;20.20;58.10;;;;;;6092581;23;20010;-64
2023/06/12 00:45:32;;;;;;;4.60;2.97;;;20.10;58.10;;;;;;6090703;23;20023;-63
2023/06/12 00:48:18;;;;;;;4.75;3.15;;;20.10;58.10;;;;;;6092701;23;20560;-62
2023/06/12 00:51:08;;;;;;;4.22;3.20;;;20.00;57.90;;;;;;6092233;23;20014;-64
2023/06/12 00:53:55;;;;;;;8.02;3.75;;;20.00;57.80;;;;;;6091066;23;20014;-64
2023/06/12 00:56:42;;;;;;;5.53;3.92;;;19.90;57.80;;;;;;6092871;23;20006;-63
2023/06/12 00:59:28;;;;;;;4.88;3.67;;;19.90;57.60;;;;;;6091829;23;20090;-64
2023/06/12 01:02:14;;;;;;;5.78;3.40;;;19.90;57.90;;;;;;6092444;23;20475;-63
2023/06/12 01:05:00;;;;;;;4.88;3.30;;;19.90;57.50;;;;;;6090342;23;20603;-63
2023/06/12 01:07:56;;;;;;;5.18;3.20;;;19.80;57.30;;;;;;6112483;23;20025;-63
2023/06/12 01:10:56;;;;;;;5.25;3.15;;;19.80;57.00;;;;;;6119486;23;20020;-64
2023/06/12 01:13:42;;;;;;;5.35;2.90;;;19.70;57.10;;;;;;6120120;23;20031;-63
2023/06/12 01:16:28;;;;;;;6.10;2.88;;;19.70;57.10;;;;;;6119367;23;20013;-63
2023/06/12 01:19:19;;;;;;;4.68;2.80;;;19.60;56.80;;;;;;6120849;23;20522;-63
2023/06/12 01:22:10;;;;;;;4.55;2.85;;;19.60;56.80;;;;;;6120514;23;20010;-63
2023/06/12 01:25:24;;;;;;;5.32;3.00;;;19.60;56.90;;;;;;6119576;23;20076;-63
2023/06/12 01:28:25;;;;;;;3.60;2.60;;;19.60;56.90;;;;;;6118765;23;20006;-65
2023/06/12 01:31:25;;;;;;;8.07;3.50;;;19.50;56.70;;;;;;6119527;23;20018;-65
2023/06/12 01:34:28;;;;;;;10.07;4.72;;;19.50;56.60;;;;;;6120907;23;20014;-62
2023/06/12 01:37:42;;;;;;;7.32;3.53;;;19.50;56.50;;;;;;6120609;23;20021;-63
2023/06/12 01:40:30;;;;;;;7.05;3.17;;;19.40;56.50;;;;;;6121290;23;20463;-63
2023/06/12 01:43:16;;;;;;;6.30;3.28;;;19.40;56.30;;;;;;6121861;23;20053;-63
2023/06/12 01:46:03;;;;;;;4.70;2.92;;;19.40;56.50;;;;;;6119508;23;20014;-63
2023/06/12 01:48:49;;;;;;;7.78;3.42;;;19.40;56.30;;;;;;6120219;23;20096;-62
2023/06/12 01:51:36;;;;;;;4.90;2.88;;;19.30;56.20;;;;;;6137876;23;20014;-62
2023/06/12 01:54:22;;;;;;;5.00;3.25;;;19.30;56.10;;;;;;6120705;23;20006;-63
2023/06/12 01:57:11;;;;;;;4.15;2.72;;;19.20;56.10;;;;;;6118352;23;20376;-62
2023/06/12 01:59:59;;;;;;;4.80;3.05;;;19.20;55.90;;;;;;6120353;23;20006;-62
2023/06/12 02:02:45;;;;;;;5.25;2.75;;;19.20;56.10;;;;;;6121361;23;20340;-63
2023/06/12 02:05:31;;;;;;;5.15;2.97;;;19.20;56.10;;;;;;6119932;23;20076;-63
2023/06/12 02:08:17;;;;;;;5.70;2.97;;;19.20;56.10;;;;;;6138605;23;20026;-62
2023/06/12 02:11:03;;;;;;;5.70;2.60;;;19.20;56.00;;;;;;6120108;23;20021;-62
2023/06/12 02:13:49;;;;;;;3.95;2.42;;;19.20;56.00;;;;;;6119659;23;20042;-62
2023/06/12 02:16:35;;;;;;;3.80;2.72;;;19.10;55.90;;;;;;6119746;23;20105;-62
2023/06/12 02:19:22;;;;;;;4.47;2.78;;;19.10;55.80;;;;;;6119328;23;20710;-62
2023/06/12 02:22:08;;;;;;;5.53;2.70;;;19.10;56.30;;;;;;6118292;23;20077;-62
2023/06/12 02:24:57;;;;;;;6.72;3.22;;;19.10;55.80;;;;;;6117999;23;20025;-62
2023/06/12 02:27:43;;;;;;;7.25;3.28;;;19.00;55.80;;;;;;6118658;23;20454;-62
2023/06/12 02:30:29;;;;;;;5.18;3.30;;;19.00;55.80;;;;;;6119976;23;20348;-62
2023/06/12 02:33:15;;;;;;;9.75;3.30;;;19.00;55.80;;;;;;6118266;23;20444;-64
2023/06/12 02:36:01;;;;;;;4.65;2.75;;;18.90;55.90;;;;;;6119449;23;20014;-65
2023/06/12 02:38:48;;;;;;;4.50;2.75;;;18.90;56.10;;;;;;6118391;23;20017;-64
2023/06/12 02:41:35;;;;;;;5.60;2.83;;;18.80;56.20;;;;;;6120634;23;20880;-64
2023/06/12 02:44:21;;;;;;;4.85;2.83;;;18.80;56.50;;;;;;6122992;23;20333;-65
2023/06/12 02:47:07;;;;;;;4.70;3.30;;;18.70;56.80;;;;;;6121312;23;20006;-64
2023/06/12 02:49:53;;;;;;;5.60;2.90;;;18.70;56.90;;;;;;6122472;23;20024;-64
2023/06/12 02:52:40;;;;;;;4.60;3.08;;;18.60;57.00;;;;;;6120018;23;20016;-64
2023/06/12 02:55:26;;;;;;;4.90;3.50;;;18.60;57.20;;;;;;6120359;23;20024;-64
2023/06/12 02:58:11;;;;;;;7.22;3.80;;;18.60;57.20;;;;;;6120958;23;20224;-64
2023/06/12 03:00:57;;;;;;;5.07;3.10;;;18.60;57.20;;;;;;6120478;23;20014;-64
2023/06/12 03:03:44;;;;;;;5.43;3.30;;;18.50;57.30;;;;;;6121575;23;20018;-65
2023/06/12 03:06:31;;;;;;;5.82;3.10;;;18.50;57.50;;;;;;6120498;23;20329;-65
2023/06/12 03:09:18;;;;;;;4.13;2.75;;;18.50;57.50;;;;;;6121533;23;20098;-64
2023/06/12 03:12:04;;;;;;;6.30;3.40;;;18.50;57.70;;;;;;6122303;23;20042;-64
2023/06/12 03:14:50;;;;;;;4.97;3.70;;;18.40;57.70;;;;;;6121457;23;20093;-63
2023/06/12 03:17:36;;;;;;;5.38;2.97;;;18.40;57.60;;;;;;6120137;23;20041;-63
2023/06/12 03:20:24;;;;;;;6.43;3.30;;;18.40;57.70;;;;;;6123365;23;20010;-63
2023/06/12 03:23:10;;;;;;;8.68;3.63;;;18.30;57.70;;;;;;6122566;23;20064;-63
2023/06/12 03:25:56;;;;;;;4.75;3.10;;;18.30;58.00;;;;;;6118612;23;20013;-62
2023/06/12 03:28:44;;;;;;;14.27;3.83;;;18.30;57.80;;;;;;6119911;23;20049;-63
2023/06/12 03:31:30;;;;;;;5.53;3.13;;;18.30;57.70;;;;;;6120296;23;20065;-64
2023/06/12 03:34:16;;;;;;;5.32;3.10;;;18.30;57.80;;;;;;6120312;23;20010;-64
2023/06/12 03:37:02;;;;;;;5.18;3.22;;;18.30;58.00;;;;;;6118848;23;20539;-63
2023/06/12 03:39:48;;;;;;;5.50;2.90;;;18.30;57.80;;;;;;6122864;23;20014;-64
2023/06/12 03:42:36;;;;;;;4.03;2.50;;;18.30;57.90;;;;;;6118699;23;20116;-64
2023/06/12 03:45:22;;;;;;;5.32;3.35;;;18.30;57.80;;;;;;6120857;23;20022;-63
2023/06/12 03:48:08;;;;;;;4.85;3.67;;;18.30;57.80;;;;;;6119385;23;20356;-63
2023/06/12 03:50:54;;;;;;;6.28;3.10;;;18.30;58.60;;;;;;6120180;23;20018;-64
2023/06/12 03:53:40;;;;;;;3.92;2.85;;;18.30;57.90;;;;;;6119901;23;20014;-63
2023/06/12 03:56:25;;;;;;;6.53;3.00;;;18.30;58.10;;;;;;6119781;23;20460;-65
2023/06/12 03:59:12;;;;;;;4.38;2.97;;;18.30;58.00;;;;;;6139711;23;20351;-61
2023/06/12 04:01:58;;;;;;;6.38;2.92;;;18.30;58.10;;;;;;6119291;23;20018;-61
2023/06/12 04:04:44;;;;;;;5.20;3.17;;;18.30;58.00;;;;;;6120985;23;20017;-62
2023/06/12 04:07:30;;;;;;;6.78;3.13;;;18.30;58.10;;;;;;6119743;23;20049;-61
2023/06/12 04:10:16;;;;;;;4.90;2.90;;;18.30;58.00;;;;;;6119792;23;20045;-60
2023/06/12 04:13:02;;;;;;;6.93;2.70;;;18.30;58.10;;;;;;6118185;23;20041;-62
2023/06/12 04:15:48;;;;;;;6.88;2.97;;;18.30;57.90;;;;;;6119758;23;20021;-62
2023/06/12 04:18:37;;;;;;;6.55;2.63;;;18.30;57.80;;;;;;6120414;23;20069;-64
2023/06/12 04:21:23;;;;;;;5.00;3.15;;;18.30;57.90;;;;;;6118937;23;20017;-65
2023/06/12 04:24:15;;;;;;;6.38;3.00;;;18.30;58.00;;;;;;6119998;23;20440;-64
2023/06/12 04:27:01;;;;;;;4.70;2.70;;;18.30;58.10;;;;;;6118924;23;20010;-66
2023/06/12 04:29:47;;;;;;;5.70;3.30;;;18.30;58.10;;;;;;6122143;23;20041;-66
2023/06/12 04:32:33;;;;;;;5.05;3.17;;;18.40;58.20;;;;;;6119135;23;20006;-67
2023/06/12 04:35:19;;;;;;;8.40;3.22;;;18.40;58.30;;;;;;6120202;23;20014;-65
2023/06/12 04:38:05;;;;;;;146.05;12.25;;;18.50;58.30;;;;;;6120062;23;20059;-66
2023/06/12 04:40:54;;;;;;;4.40;3.17;;;18.50;58.90;;;;;;6120544;23;20018;-65
2023/06/12 04:43:39;;;;;;;6.65;3.00;;;18.50;58.50;;;;;;6120350;23;20436;-65
2023/06/12 04:46:27;;;;;;;9.15;3.33;;;18.60;58.30;;;;;;6122522;23;20072;-68
2023/06/12 04:49:13;;;;;;;4.97;3.05;;;18.60;58.20;;;;;;6120444;23;20017;-66
2023/06/12 04:52:03;;;;;;;5.13;3.08;;;18.70;58.60;;;;;;6118555;23;20021;-65
2023/06/12 04:54:48;;;;;;;3.75;2.35;;;18.70;58.50;;;;;;6120170;23;20010;-64
2023/06/12 04:57:39;;;;;;;5.45;2.83;;;18.80;58.80;;;;;;6120155;23;20072;-79
2023/06/12 05:00:25;;;;;;;6.43;3.30;;;18.80;58.50;;;;;;6142062;23;20006;-81
2023/06/12 05:03:11;;;;;;;4.88;2.80;;;18.80;58.30;;;;;;6118347;23;20024;-78
2023/06/12 05:05:57;;;;;;;5.70;3.15;;;18.90;58.60;;;;;;6119776;23;20020;-79
2023/06/12 05:08:43;;;;;;;4.25;2.63;;;18.90;58.50;;;;;;6118423;23;20026;-78
2023/06/12 05:11:29;;;;;;;4.15;2.97;;;19.00;58.00;;;;;;6119569;23;20010;-78
2023/06/12 05:14:15;;;;;;;7.55;2.80;;;19.00;58.10;;;;;;6120307;23;20005;-76
2023/06/12 05:17:01;;;;;;;5.63;3.92;;;19.00;58.20;;;;;;6118012;23;20380;-78
2023/06/12 05:19:47;;;;;;;3.88;2.55;;;19.00;58.10;;;;;;6119883;23;20015;-81
2023/06/12 05:22:33;;;;;;;5.35;3.00;;;19.10;58.20;;;;;;6120857;23;20009;-79
2023/06/12 05:25:19;;;;;;;7.20;3.13;;;19.10;58.00;;;;;;6121677;23;20033;-81
2023/06/12 05:28:05;;;;;;;5.28;2.90;;;19.20;58.20;;;;;;6118958;23;20010;-81
2023/06/12 05:30:51;;;;;;;7.38;2.50;;;19.20;57.80;;;;;;6120105;23;20013;-80
2023/06/12 05:33:38;;;;;;;9.45;3.28;;;19.30;58.20;;;;;;6120771;23;20043;-79
2023/06/12 05:36:24;;;;;;;4.97;2.75;;;19.30;57.90;;;;;;6117641;23;20013;-81
2023/06/12 05:39:09;;;;;;;4.63;2.75;;;19.40;58.00;;;;;;6119974;23;20006;-81
2023/06/12 05:41:55;;;;;;;4.50;2.92;;;19.50;57.80;;;;;;6120065;23;20354;-80
2023/06/12 05:44:42;;;;;;;5.45;2.83;;;19.50;57.70;;;;;;6120916;23;20025;-81
2023/06/12 05:47:28;;;;;;;4.45;3.15;;;19.60;57.90;;;;;;6117575;23;20010;-81
2023/06/12 05:50:14;;;;;;;7.75;3.38;;;19.70;57.60;;;;;;6119863;23;20157;-80
2023/06/12 05:53:00;;;;;;;3.95;2.25;;;19.80;57.50;;;;;;6120238;23;20034;-83
2023/06/12 05:55:46;;;;;;;3.72;2.60;;;19.80;57.40;;;;;;6121233;23;20037;-83
2023/06/12 05:58:32;;;;;;;4.50;2.90;;;19.80;57.40;;;;;;6119940;23;20022;-79
2023/06/12 06:01:21;;;;;;;4.82;3.03;;;19.90;57.10;;;;;;6119585;23;20010;-72
2023/06/12 06:04:11;;;;;;;4.55;2.55;;;19.90;57.30;;;;;;6120606;23;20337;-69
2023/06/12 06:06:57;;;;;;;5.15;2.90;;;20.00;57.20;;;;;;6118837;23;20126;-81
2023/06/12 06:09:43;;;;;;;7.07;2.95;;;20.00;57.10;;;;;;6119248;23;20022;-75
2023/06/12 06:12:29;;;;;;;4.47;3.08;;;20.10;56.90;;;;;;6120728;23;20477;-74
2023/06/12 06:15:15;;;;;;;6.97;2.72;;;20.20;57.10;;;;;;6119509;23;20017;-77
2023/06/12 06:18:01;;;;;;;4.80;2.95;;;20.30;57.40;;;;;;6120424;23;20078;-77
2023/06/12 06:20:48;;;;;;;6.38;2.92;;;20.30;57.30;;;;;;6120221;23;20037;-76
2023/06/12 06:23:34;;;;;;;7.63;2.72;;;20.40;56.90;;;;;;6119759;23;20018;-72
2023/06/12 06:26:20;;;;;;;6.25;3.45;;;20.40;57.10;;;;;;6120597;23;20368;-75
2023/06/12 06:29:06;;;;;;;10.48;2.80;;;20.50;57.30;;;;;;6119834;23;20421;-63
2023/06/12 06:31:52;;;;;;;6.50;2.72;;;20.50;57.20;;;;;;6121412;23;20014;-62
2023/06/12 06:34:38;;;;;;;11.13;3.30;;;20.60;57.20;;;;;;6121539;23;20016;-64
2023/06/12 06:37:24;;;;;;;6.20;3.30;;;20.70;57.40;;;;;;6117404;23;20014;-63
2023/06/12 06:40:10;;;;;;;8.57;3.55;;;20.80;57.40;;;;;;6120669;23;20085;-64
2023/06/12 06:42:56;;;;;;;5.57;3.00;;;20.80;57.10;;;;;;6118430;23;20375;-63
2023/06/12 06:45:43;;;;;;;6.28;3.20;;;20.80;57.00;;;;;;6118093;23;20332;-63
2023/06/12 06:48:29;;;;;;;5.70;3.00;;;20.90;57.10;;;;;;6119064;23;20568;-64
2023/06/12 06:51:14;;;;;;;7.85;3.17;;;20.90;57.10;;;;;;6122083;23;20499;-62
2023/06/12 06:54:00;;;;;;;4.90;3.10;;;21.00;57.20;;;;;;6118778;23;20006;-78
2023/06/12 06:56:48;;;;;;;6.63;2.67;;;21.00;57.10;;;;;;6120478;23;20021;-65
2023/06/12 06:59:35;;;;;;;6.45;2.95;;;21.10;57.10;;;;;;6120908;23;20014;-66
2023/06/12 07:02:21;;;;;;;5.22;2.60;;;21.20;57.40;;;;;;6121703;23;20021;-66
2023/06/12 07:05:07;;;;;;;5.50;2.80;;;21.30;57.20;;;;;;6119680;23;20025;-67
2023/06/12 07:07:54;;;;;;;6.63;3.50;;;21.40;56.80;;;;;;6119256;23;20030;-65
2023/06/12 07:10:40;;;;;;;3.83;2.50;;;21.40;56.90;;;;;;6120302;23;20096;-66
2023/06/12 07:13:25;;;;;;;4.85;2.72;;;21.50;56.70;;;;;;6120307;23;20372;-66
2023/06/12 07:16:11;;;;;;;6.68;3.13;;;21.60;57.10;;;;;;6119180;23;20124;-65
2023/06/12 07:18:57;;;;;;;3.50;2.60;;;21.70;56.90;;;;;;6120495;23;20018;-67
2023/06/12 07:21:43;;;;;;;5.47;3.60;;;21.80;56.80;;;;;;6121075;23;20010;-64
2023/06/12 07:24:29;;;;;;;4.18;2.47;;;21.90;56.60;;;;;;6118915;23;20054;-65
2023/06/12 07:27:15;;;;;;;4.13;2.65;;;22.00;56.30;;;;;;6117310;23;20101;-67
2023/06/12 07:30:01;;;;;;;5.88;3.25;;;22.10;56.20;;;;;;6118680;23;20032;-66
2023/06/12 07:32:47;;;;;;;4.88;2.40;;;22.10;56.10;;;;;;6122133;23;20313;-67
2023/06/12 07:35:33;;;;;;;4.95;2.63;;;22.20;56.20;;;;;;6119742;23;20010;-67
2023/06/12 07:38:19;;;;;;;4.00;2.72;;;22.30;56.20;;;;;;6121111;23;20010;-66
2023/06/12 07:41:05;;;;;;;4.05;2.85;;;22.40;55.90;;;;;;6118717;23;20105;-66
2023/06/12 07:43:51;;;;;;;7.18;2.53;;;22.50;55.50;;;;;;6121109;23;20022;-66
2023/06/12 07:46:37;;;;;;;5.78;2.60;;;22.60;55.50;;;;;;6120783;23;20432;-66
2023/06/12 07:49:23;;;;;;;5.88;2.78;;;22.60;54.80;;;;;;6122101;23;20068;-65
2023/06/12 07:52:10;;;;;;;12.90;4.05;;;22.70;54.80;;;;;;6117679;23;20017;-65
2023/06/12 07:54:56;;;;;;;6.40;2.63;;;22.80;54.20;;;;;;6121307;23;20021;-66
2023/06/12 07:57:42;;;;;;;6.22;2.90;;;22.90;54.30;;;;;;6119244;23;20141;-66
2023/06/12 08:00:28;;;;;;;5.72;2.55;;;23.00;54.00;;;;;;6118515;23;20452;-67
2023/06/12 08:03:15;;;;;;;4.47;2.70;;;23.10;53.50;;;;;;6118262;23;20014;-66
2023/06/12 08:06:01;;;;;;;4.68;2.97;;;23.10;52.90;;;;;;6119966;23;20116;-66
2023/06/12 08:08:47;;;;;;;4.88;2.50;;;23.20;53.10;;;;;;6120275;23;20467;-65
2023/06/12 08:11:33;;;;;;;5.45;2.95;;;23.30;52.10;;;;;;6122625;23;20029;-67
2023/06/12 08:14:20;;;;;;;7.18;2.70;;;23.30;51.50;;;;;;6118995;23;20037;-66
2023/06/12 08:17:06;;;;;;;11.40;2.78;;;23.40;51.10;;;;;;6118621;23;20014;-66
2023/06/12 08:19:52;;;;;;;15.00;3.22;;;23.50;51.30;;;;;;6121222;23;20261;-66
2023/06/12 08:22:39;;;;;;;4.30;2.88;;;23.60;51.20;;;;;;6119355;23;20428;-66
2023/06/12 08:25:25;;;;;;;4.43;2.67;;;23.70;50.60;;;;;;6120754;23;20409;-66
2023/06/12 08:28:11;;;;;;;6.85;2.58;;;23.80;50.80;;;;;;6117976;23;20378;-66
2023/06/12 08:30:57;;;;;;;5.47;2.53;;;23.90;50.50;;;;;;6119706;23;20009;-67
2023/06/12 08:33:43;;;;;;;5.07;2.38;;;24.00;51.00;;;;;;6120269;23;20009;-66
2023/06/12 08:36:29;;;;;;;4.63;2.97;;;24.00;49.50;;;;;;6119753;23;20021;-67
2023/06/12 08:39:15;;;;;;;7.05;2.55;;;24.10;48.10;;;;;;6119152;23;20010;-65
2023/06/12 08:42:09;;;;;;;4.03;2.25;;;24.10;47.90;;;;;;6117388;23;20013;-66
2023/06/12 08:45:07;;;;;;;9.70;2.60;;;24.10;47.60;;;;;;6122689;23;20060;-66
2023/06/12 08:47:55;;;;;;;8.10;3.50;;;24.20;47.40;;;;;;6136645;23;20073;-67
2023/06/12 08:50:42;;;;;;;9.43;2.50;;;24.20;47.50;;;;;;6120764;23;20016;-66
2023/06/12 08:53:28;;;;;;;4.85;2.80;;;24.30;48.00;;;;;;6119805;23;20014;-66
2023/06/12 08:56:14;;;;;;;14.32;3.55;;;24.40;47.70;;;;;;6119383;23;20014;-66
2023/06/12 08:59:03;;;;;;;5.47;2.75;;;24.50;48.70;;;;;;6118897;23;20020;-67
2023/06/12 09:01:56;;;;;;;7.28;2.85;;;24.50;47.80;;;;;;6136233;23;20360;-67
2023/06/12 09:04:54;;;;;;;9.07;3.42;;;24.50;47.80;;;;;;6121209;23;20404;-66
2023/06/12 09:07:44;;;;;;;17.48;3.20;;;24.60;47.90;;;;;;6121506;23;20041;-66
2023/06/12 09:10:34;;;;;;;7.57;2.80;;;24.60;48.10;;;;;;6120825;23;20084;-66
2023/06/12 09:13:20;;;;;;;9.20;2.67;;;24.70;47.80;;;;;;6120904;23;20014;-65
2023/06/12 09:16:11;;;;;;;5.45;2.38;;;24.80;48.40;;;;;;6121879;23;20017;-66
2023/06/12 09:18:57;;;;;;;4.00;2.83;;;24.80;48.60;;;;;;6122346;23;20428;-64
2023/06/12 09:21:47;;;;;;;9.35;2.65;;;25.00;48.40;;;;;;6120375;23;20018;-65
2023/06/12 09:24:33;;;;;;;8.80;2.65;;;25.00;48.30;;;;;;6118689;23;20028;-65
2023/06/12 09:27:22;;;;;;;7.35;2.72;;;25.10;48.50;;;;;;6117176;23;20037;-65
2023/06/12 09:30:09;;;;;;;4.82;2.50;;;25.30;48.90;;;;;;6119850;23;20010;-66
2023/06/12 09:32:55;;;;;;;3.25;2.42;;;25.50;48.70;;;;;;6118494;23;20014;-66
2023/06/12 09:35:54;;;;;;;11.98;3.25;;;25.50;47.70;;;;;;6119644;23;20010;-65
2023/06/12 09:38:40;;;;;;;8.48;2.92;;;25.60;47.80;;;;;;6118505;23;20052;-65
2023/06/12 09:41:26;;;;;;;5.10;2.55;;;25.60;47.50;;;;;;6121865;23;20014;-64
2023/06/12 09:44:12;;;;;;;3.83;2.40;;;25.50;46.90;;;;;;6120228;23;20459;-66
2023/06/12 09:47:03;;;;;;;6.25;2.30;;;25.50;47.10;;;;;;6118508;23;20396;-65
2023/06/12 09:49:49;;;;;;;4.85;2.72;;;25.50;47.30;;;;;;6122715;23;20440;-65
2023/06/12 09:52:36;;;;;;;7.65;2.72;;;25.60;47.50;;;;;;6117916;23;20020;-66
2023/06/12 09:55:25;;;;;;;3.50;2.33;;;25.60;47.30;;;;;;6120652;23;20030;-66
2023/06/12 09:58:13;;;;;;;5.65;2.65;;;25.60;47.70;;;;;;6119334;23;20013;-65
2023/06/12 10:01:03;;;;;;;3.92;2.65;;;25.60;47.90;;;;;;6120337;23;20020;-66
2023/06/12 10:03:53;;;;;;;4.60;2.60;;;25.70;48.40;;;;;;6119076;23;20022;-65
2023/06/12 10:06:40;;;;;;;4.43;3.00;;;25.60;48.10;;;;;;6121516;23;20467;-65
2023/06/12 10:09:27;;;;;;;6.32;3.65;;;25.60;48.10;;;;;;6117770;23;20021;-65
2023/06/12 10:12:14;;;;;;;9.43;2.88;;;25.60;48.70;;;;;;6120766;23;20014;-66
2023/06/12 10:15:04;;;;;;;17.45;3.80;;;25.70;49.20;;;;;;6119793;23;20045;-65
2023/06/12 10:17:53;;;;;;;8.85;3.42;;;25.70;49.10;;;;;;6120739;23;20013;-71
2023/06/12 10:20:41;;;;;;;11.55;3.42;;;25.70;49.50;;;;;;6116005;23;20014;-69
2023/06/12 10:23:28;;;;;;;10.85;4.18;;;25.80;50.00;;;;;;6118177;23;20085;-70
2023/06/12 10:26:14;;;;;;;12.25;2.90;;;25.80;50.50;;;;;;6121329;23;20087;-71
2023/06/12 10:29:00;;;;;;;10.63;3.58;;;26.00;50.70;;;;;;6119760;23;20030;-71
2023/06/12 10:31:46;;;;;;;5.32;3.10;;;26.10;51.00;;;;;;6118216;23;20451;-71
2023/06/12 10:34:41;;;;;;;5.50;2.92;;;26.20;51.40;;;;;;6117301;23;20037;-66
2023/06/12 10:37:31;;;;;;;12.25;3.42;;;26.40;50.80;;;;;;6118129;23;20461;-66
2023/06/12 10:40:22;;;;;;;4.30;2.80;;;26.50;50.40;;;;;;6115823;23;20017;-66
2023/06/12 10:43:08;;;;;;;5.90;3.17;;;26.60;50.20;;;;;;6116228;23;20085;-66
2023/06/12 10:45:58;;;;;;;4.20;2.55;;;26.50;49.40;;;;;;6115591;23;20355;-66
2023/06/12 10:48:47;;;;;;;8.18;3.08;;;26.50;49.70;;;;;;6116984;23;20333;-66
2023/06/12 10:51:33;;;;;;;5.75;2.85;;;26.50;49.90;;;;;;6119704;23;20033;-66
2023/06/12 10:54:26;;;;;;;5.55;2.85;;;26.50;49.50;;;;;;6120793;23;20013;-67
2023/06/12 10:57:12;;;;;;;7.05;2.92;;;26.50;49.30;;;;;;6122237;23;20025;-66
2023/06/12 10:59:58;;;;;;;6.03;2.78;;;26.50;49.30;;;;;;6120533;23;20014;-65
2023/06/12 11:03:00;;;;;;;4.88;3.33;;;26.50;49.30;;;;;;6119863;23;20467;-65
2023/06/12 11:06:00;;;;;;;5.55;3.30;;;26.40;49.30;;;;;;6122620;23;20029;-66
2023/06/12 11:08:47;;;;;;;6.15;3.50;;;26.30;49.30;;;;;;6123121;23;20406;-66
2023/06/12 11:11:32;;;;;;;7.13;3.20;;;26.30;49.50;;;;;;6121701;23;20022;-67
2023/06/12 11:14:28;;;;;;;10.98;3.40;;;26.40;50.00;;;;;;6120276;23;20119;-66
2023/06/12 11:17:14;;;;;;;4.10;2.92;;;26.40;49.60;;;;;;6121982;23;20799;-66
2023/06/12 11:20:00;;;;;;;3.60;2.45;;;26.40;48.90;;;;;;6121052;23;20024;-66
2023/06/12 11:22:47;;;;;;;13.88;3.28;;;26.40;49.10;;;;;;6122072;23;20010;-66
2023/06/12 11:25:44;;;;;;;4.93;2.97;;;26.40;48.40;;;;;;6123076;23;20165;-65
2023/06/12 11:28:30;;;;;;;6.28;3.28;;;26.40;48.00;;;;;;6121812;23;20368;-66
2023/06/12 11:31:16;;;;;;;7.30;3.00;;;26.50;48.30;;;;;;6119490;23;20042;-65
2023/06/12 11:34:02;;;;;;;6.57;3.28;;;26.50;48.70;;;;;;6119170;23;20014;-66
2023/06/12 11:36:48;;;;;;;6.40;2.53;;;26.60;48.40;;;;;;6120129;23;20380;-65
2023/06/12 11:39:34;;;;;;;5.70;3.65;;;26.50;48.20;;;;;;6118798;23;20017;-66
2023/06/12 11:42:20;;;;;;;5.60;3.20;;;26.50;48.10;;;;;;6118922;23;20436;-65
2023/06/12 11:45:12;;;;;;;9.23;3.10;;;26.50;48.20;;;;;;6120596;23;20066;-65
2023/06/12 11:47:59;;;;;;;6.43;3.00;;;26.60;48.40;;;;;;6118972;23;20013;-65
2023/06/12 11:50:47;;;;;;;4.85;2.80;;;26.70;48.10;;;;;;6120127;23;20010;-66
2023/06/12 11:53:33;;;;;;;5.05;3.30;;;26.70;47.70;;;;;;6119405;23;20061;-66
2023/06/12 11:56:20;;;;;;;5.32;3.03;;;26.70;47.80;;;;;;6121133;23;20016;-65
2023/06/12 11:59:06;;;;;;;4.10;3.13;;;26.80;48.80;;;;;;6122127;23;20009;-67
2023/06/12 12:01:57;;;;;;;4.07;2.78;;;26.80;47.80;;;;;;6117861;23;20021;-66
2023/06/12 12:04:43;;;;;;;5.57;3.03;;;26.80;47.30;;;;;;6120078;23;20181;-67
2023/06/12 12:07:31;;;;;;;6.78;2.67;;;26.70;47.60;;;;;;6118855;23;20329;-66
2023/06/12 12:10:17;;;;;;;4.97;2.97;;;26.70;47.40;;;;;;6122131;23;20018;-67
2023/06/12 12:13:03;;;;;;;4.43;2.70;;;26.60;47.30;;;;;;6118392;23;20018;-65
2023/06/12 12:15:49;;;;;;;5.00;2.92;;;26.60;46.90;;;;;;6120191;23;20010;-66
2023/06/12 12:18:42;;;;;;;6.95;2.50;;;26.50;47.00;;;;;;6118945;23;20440;-66
2023/06/12 12:21:27;;;;;;;4.40;2.70;;;26.40;47.10;;;;;;6121822;23;20021;-66
2023/06/12 12:24:14;;;;;;;6.10;2.40;;;26.30;46.70;;;;;;6119416;23;20125;-65
2023/06/12 12:27:00;;;;;;;5.82;3.17;;;26.10;46.30;;;;;;6120376;23;20010;-67
2023/06/12 12:29:46;;;;;;;6.60;2.88;;;26.00;46.70;;;;;;6121486;23;20033;-66
2023/06/12 12:32:32;;;;;;;7.97;3.28;;;26.00;46.90;;;;;;6119357;23;20022;-68
2023/06/12 12:35:19;;;;;;;8.27;2.92;;;26.00;47.00;;;;;;6119937;23;20020;-66
2023/06/12 12:38:08;;;;;;;8.57;3.05;;;26.10;46.90;;;;;;6118548;23;20198;-67
2023/06/12 12:40:54;;;;;;;14.32;3.08;;;26.30;47.00;;;;;;6119797;23;20014;-67
2023/06/12 12:43:40;;;;;;;12.70;3.50;;;26.50;46.80;;;;;;6120819;23;20014;-67
2023/06/12 12:46:26;;;;;;;5.68;2.88;;;26.70;47.20;;;;;;6119772;23;20024;-67
2023/06/12 12:49:12;;;;;;;6.28;2.90;;;26.90;46.40;;;;;;6119260;23;20088;-66
2023/06/12 12:51:58;;;;;;;5.00;2.60;;;27.00;46.00;;;;;;6118773;23;20044;-66
2023/06/12 12:54:46;;;;;;;6.95;2.90;;;26.90;45.90;;;;;;6122302;23;20010;-66
2023/06/12 12:57:34;;;;;;;4.80;2.30;;;26.90;46.00;;;;;;6120139;23;20412;-67
2023/06/12 13:00:20;;;;;;;5.65;2.80;;;26.90;45.60;;;;;;6119646;23;20006;-66
2023/06/12 13:03:06;;;;;;;4.65;2.67;;;26.90;45.50;;;;;;6118568;23;20109;-66
2023/06/12 13:05:52;;;;;;;5.88;2.70;;;27.00;45.60;;;;;;6121089;23;20022;-66
2023/06/12 13:08:38;;;;;;;4.75;2.05;;;27.10;45.50;;;;;;6120616;23;20018;-66
2023/06/12 13:11:26;;;;;;;7.65;2.38;;;27.20;45.60;;;;;;6119202;23;20014;-66
2023/06/12 13:14:11;;;;;;;3.78;2.33;;;27.40;45.60;;;;;;6119905;23;20013;-66
2023/06/12 13:16:57;;;;;;;7.22;3.25;;;27.50;45.30;;;;;;6119009;23;20057;-67
2023/06/12 13:19:44;;;;;;;6.03;2.75;;;27.50;44.60;;;;;;6117674;23;20016;-66
2023/06/12 13:22:31;;;;;;;4.20;2.47;;;27.50;44.80;;;;;;6119245;23;20014;-67
2023/06/12 13:25:17;;;;;;;9.00;3.17;;;27.50;44.10;;;;;;6120861;23;20336;-66
2023/06/12 13:28:03;;;;;;;3.80;2.65;;;27.50;44.20;;;;;;6118631;23;20065;-66
2023/06/12 13:30:50;;;;;;;4.95;3.00;;;27.50;43.90;;;;;;6119856;23;20425;-66
2023/06/12 13:33:36;;;;;;;5.53;2.85;;;27.50;43.30;;;;;;6118118;23;20034;-65
2023/06/12 13:36:23;;;;;;;3.35;2.67;;;27.50;43.60;;;;;;6121209;23;20010;-65
2023/06/12 13:39:09;;;;;;;3.95;2.25;;;27.50;43.60;;;;;;6119474;23;20276;-68
2023/06/12 13:41:56;;;;;;;7.30;2.90;;;27.50;43.70;;;;;;6117839;23;20450;-68
2023/06/12 13:44:42;;;;;;;5.70;2.72;;;27.70;43.90;;;;;;6119623;23;20022;-66
2023/06/12 13:47:28;;;;;;;5.53;2.67;;;27.70;43.60;;;;;;6120748;23;20014;-67
2023/06/12 13:50:14;;;;;;;3.70;2.63;;;27.80;43.40;;;;;;6122371;23;20029;-67
2023/06/12 13:53:00;;;;;;;4.78;2.38;;;27.90;43.60;;;;;;6118554;23;20006;-66
2023/06/12 13:55:46;;;;;;;3.33;2.22;;;28.00;43.20;;;;;;6139340;23;20010;-66
2023/06/12 13:58:32;;;;;;;4.75;2.70;;;28.00;43.00;;;;;;6118490;23;20471;-67
2023/06/12 14:01:18;;;;;;;6.88;2.97;;;28.00;42.80;;;;;;6120114;23;20068;-67
2023/06/12 14:04:04;;;;;;;4.43;2.45;;;28.00;42.80;;;;;;6118405;23;20456;-65
2023/06/12 14:09:43;;;;;;;4.43;2.85;;;28.00;43.10;;;;;;6097264;23;20024;-68
2023/06/12 14:47:17;;;;;;;5.10;2.72;;;28.60;42.80;;;;;;6091802;23;20030;-64
2023/06/12 14:50:03;;;;;;;6.50;2.20;;;28.40;42.80;;;;;;6091215;23;20010;-64
2023/06/12 14:52:49;;;;;;;4.60;2.28;;;28.20;42.70;;;;;;6089273;23;20021;-63
2023/06/12 14:55:40;;;;;;;4.10;2.80;;;28.20;42.80;;;;;;6092491;23;20017;-64
2023/06/12 14:58:26;;;;;;;3.88;2.22;;;28.30;42.70;;;;;;6090741;23;20014;-63
2023/06/12 15:01:12;;;;;;;6.68;2.53;;;28.30;42.60;;;;;;6093436;23;20082;-64
2023/06/12 15:03:58;;;;;;;3.83;2.47;;;28.40;42.40;;;;;;6093591;23;20014;-64
2023/06/12 15:06:44;;;;;;;3.70;2.55;;;28.40;42.60;;;;;;6092635;23;20018;-63